createdAt,value
2023-03-18T00:01:15.235Z,11.96
2023-03-18T00:03:43.336Z,12.03
2023-03-18T00:06:17.025Z,12.12
2023-03-18T00:08:50.711Z,12.06
2023-03-18T00:11:31.826Z,12.11
2023-03-18T00:14:01.615Z,12.16
2023-03-18T00:16:45.847Z,12.13
2023-03-18T00:19:26.174Z,11.98
2023-03-18T00:22:28.441Z,12.02
2023-03-18T00:24:57.611Z,12.10
2023-03-18T00:27:28.656Z,12.08
2023-03-18T00:29:57.493Z,12.09
2023-03-18T00:32:27.793Z,12.02
2023-03-18T00:34:56.507Z,12.07
2023-03-18T00:37:31.126Z,12.01
2023-03-18T00:40:07.502Z,11.89
2023-03-18T00:42:42.723Z,11.81
2023-03-18T00:45:14.212Z,11.57
2023-03-18T00:47:42.818Z,11.65
2023-03-18T00:50:14.810Z,11.50
2023-03-18T00:52:42.755Z,11.45
2023-03-18T00:55:12.313Z,11.28
2023-03-18T00:57:40.231Z,11.03
2023-03-18T01:00:09.823Z,10.95
2023-03-18T01:02:40.858Z,10.89
2023-03-18T01:05:09.592Z,10.84
2023-03-18T01:07:37.882Z,10.69
2023-03-18T01:10:07.826Z,10.63
2023-03-18T01:12:38.921Z,10.55
2023-03-18T01:15:10.591Z,10.72
2023-03-18T01:17:38.515Z,10.81
2023-03-18T01:20:07.738Z,10.74
2023-03-18T01:22:36.042Z,10.72
2023-03-18T01:25:03.977Z,10.81
2023-03-18T01:27:31.789Z,10.84
2023-03-18T01:30:01.362Z,10.90
2023-03-18T01:32:29.806Z,11.01
2023-03-18T01:34:58.182Z,10.98
2023-03-18T01:37:26.344Z,10.94
2023-03-18T01:39:54.675Z,10.86
2023-03-18T01:42:22.846Z,10.82
2023-03-18T01:44:51.103Z,10.78
2023-03-18T01:47:21.456Z,10.76
2023-03-18T01:49:52.380Z,10.73
2023-03-18T01:52:22.766Z,10.61
2023-03-18T01:54:56.676Z,10.70
2023-03-18T01:57:25.056Z,10.75
2023-03-18T01:59:55.288Z,10.66
2023-03-18T02:02:25.389Z,10.62
2023-03-18T02:04:56.848Z,10.53
2023-03-18T02:07:27.923Z,10.35
2023-03-18T02:09:58.039Z,10.30
2023-03-18T02:12:29.843Z,10.34
2023-03-18T02:14:58.679Z,10.30
2023-03-18T02:17:32.836Z,10.29
2023-03-18T02:20:14.683Z,10.19
2023-03-18T02:22:45.977Z,10.15
2023-03-18T02:25:27.048Z,10.08
2023-03-18T02:28:00.516Z,10.05
2023-03-18T02:30:33.130Z,10.01
2023-03-18T02:33:01.788Z,9.90
2023-03-18T02:35:30.987Z,9.88
2023-03-18T02:37:59.054Z,9.84
2023-03-18T02:40:33.302Z,9.63
2023-03-18T02:43:18.782Z,9.65
2023-03-18T02:45:56.625Z,9.65
2023-03-18T02:48:29.075Z,9.59
2023-03-18T02:50:58.367Z,9.45
2023-03-18T02:53:26.238Z,9.54
2023-03-18T02:55:54.360Z,9.62
2023-03-18T02:58:25.715Z,9.53
2023-03-18T03:00:53.532Z,9.61
2023-03-18T03:03:21.617Z,9.56
2023-03-18T03:05:50.509Z,9.53
2023-03-18T03:08:18.896Z,9.46
2023-03-18T03:10:51.070Z,9.49
2023-03-18T03:13:21.670Z,9.50
2023-03-18T03:15:52.546Z,9.60
2023-03-18T03:18:21.566Z,9.57
2023-03-18T03:20:52.217Z,9.50
2023-03-18T03:23:33.725Z,9.56
2023-03-18T03:27:10.595Z,9.54
2023-03-18T03:29:40.662Z,9.46
2023-03-18T03:32:10.768Z,9.50
2023-03-18T03:34:41.598Z,9.49
2023-03-18T03:37:12.116Z,9.47
2023-03-18T03:39:40.284Z,9.39
2023-03-18T03:42:10.390Z,9.34
2023-03-18T03:44:41.137Z,9.26
2023-03-18T03:47:14.056Z,9.19
2023-03-18T03:49:42.656Z,9.10
2023-03-18T03:52:10.888Z,9.15
2023-03-18T03:54:41.666Z,9.12
2023-03-18T03:57:09.903Z,9.15
2023-03-18T03:59:37.994Z,9.13
2023-03-18T04:02:08.909Z,9.16
2023-03-18T04:04:38.791Z,9.18
2023-03-18T04:07:06.798Z,9.12
2023-03-18T04:09:36.213Z,9.21
2023-03-18T04:12:05.592Z,9.19
2023-03-18T04:14:33.489Z,9.13
2023-03-18T04:17:03.020Z,9.11
2023-03-18T04:19:31.149Z,9.14
2023-03-18T04:22:00.466Z,9.11
2023-03-18T04:24:28.476Z,9.10
2023-03-18T04:26:56.359Z,9.10
2023-03-18T04:29:24.449Z,9.05
2023-03-18T04:31:52.398Z,9.08
2023-03-18T04:34:20.518Z,9.14
2023-03-18T04:36:48.769Z,9.06
2023-03-18T04:39:18.465Z,9.15
2023-03-18T04:41:49.760Z,9.17
2023-03-18T04:44:19.315Z,9.14
2023-03-18T04:46:47.262Z,9.07
2023-03-18T04:49:15.298Z,9.03
2023-03-18T04:51:43.253Z,9.11
2023-03-18T04:54:12.627Z,9.14
2023-03-18T04:56:42.293Z,9.14
2023-03-18T04:59:10.427Z,9.15
2023-03-18T05:01:38.368Z,9.18
2023-03-18T05:04:06.773Z,9.17
2023-03-18T05:06:34.949Z,9.33
2023-03-18T05:09:05.298Z,9.32
2023-03-18T05:11:33.655Z,9.30
2023-03-18T05:14:03.167Z,9.27
2023-03-18T05:16:31.311Z,9.29
2023-03-18T05:18:59.302Z,9.27
2023-03-18T05:21:30.044Z,9.29
2023-03-18T05:23:58.375Z,9.24
2023-03-18T05:26:26.265Z,9.30
2023-03-18T05:28:55.717Z,9.23
2023-03-18T05:31:26.175Z,9.12
2023-03-18T05:33:54.176Z,9.15
2023-03-18T05:36:22.380Z,9.05
2023-03-18T05:38:57.711Z,9.19
2023-03-18T05:41:28.303Z,9.10
2023-03-18T05:43:56.338Z,9.10
2023-03-18T05:46:25.896Z,9.08
2023-03-18T05:48:53.799Z,9.04
2023-03-18T05:51:21.698Z,9.02
2023-03-18T05:53:50.437Z,9.01
2023-03-18T05:56:18.805Z,9.08
2023-03-18T05:58:47.102Z,9.08
2023-03-18T06:01:15.385Z,9.06
2023-03-18T06:03:45.209Z,8.98
2023-03-18T06:06:13.155Z,9.05
2023-03-18T06:08:41.243Z,9.12
2023-03-18T06:11:09.215Z,9.17
2023-03-18T06:13:37.560Z,9.23
2023-03-18T06:16:06.436Z,9.17
2023-03-18T06:18:35.255Z,9.24
2023-03-18T06:21:04.940Z,9.27
2023-03-18T06:23:33.937Z,9.32
2023-03-18T06:26:01.882Z,9.30
2023-03-18T06:28:30.177Z,9.40
2023-03-18T06:30:59.140Z,9.40
2023-03-18T06:33:27.242Z,9.33
2023-03-18T06:35:56.267Z,9.42
2023-03-18T06:38:25.807Z,9.44
2023-03-18T06:40:54.631Z,9.51
2023-03-18T06:43:22.705Z,9.39
2023-03-18T06:45:51.001Z,9.45
2023-03-18T06:48:19.379Z,9.40
2023-03-18T06:50:50.222Z,9.40
2023-03-18T06:53:19.132Z,9.46
2023-03-18T06:55:50.953Z,9.59
2023-03-18T06:58:21.159Z,9.74
2023-03-18T07:00:49.192Z,10.04
2023-03-18T07:03:17.121Z,10.30
2023-03-18T07:05:45.250Z,10.76
2023-03-18T07:08:13.167Z,10.78
2023-03-18T07:10:44.562Z,10.96
2023-03-18T07:13:17.032Z,11.07
2023-03-18T07:15:45.361Z,11.27
2023-03-18T07:18:14.464Z,11.37
2023-03-18T07:20:43.278Z,11.50
2023-03-18T07:23:11.679Z,11.49
2023-03-18T07:25:39.618Z,11.60
2023-03-18T07:28:07.574Z,11.48
2023-03-18T07:30:38.135Z,11.42
2023-03-18T07:33:07.281Z,11.27
2023-03-18T07:35:38.091Z,11.32
2023-03-18T07:38:06.011Z,11.20
2023-03-18T07:40:33.965Z,11.08
2023-03-18T07:43:07.592Z,11.04
2023-03-18T07:45:49.580Z,10.99
2023-03-18T07:48:24.587Z,11.02
2023-03-18T07:50:59.564Z,10.96
2023-03-18T07:53:27.776Z,10.75
2023-03-18T07:56:00.788Z,10.83
2023-03-18T07:58:34.613Z,10.82
2023-03-18T08:01:04.716Z,10.82
2023-03-18T08:03:33.942Z,10.84
2023-03-18T08:06:02.736Z,10.86
2023-03-18T08:08:33.260Z,10.85
2023-03-18T08:11:02.503Z,10.90
2023-03-18T08:13:30.460Z,10.88
2023-03-18T08:15:58.840Z,10.87
2023-03-18T08:18:28.430Z,10.87
2023-03-18T08:20:58.504Z,10.91
2023-03-18T08:23:26.587Z,11.06
2023-03-18T08:25:56.770Z,11.12
2023-03-18T08:28:27.411Z,11.19
2023-03-18T08:30:57.182Z,11.29
2023-03-18T08:33:26.100Z,11.45
2023-03-18T08:35:58.031Z,11.52
2023-03-18T08:38:28.631Z,11.44
2023-03-18T08:40:56.937Z,11.48
2023-03-18T08:43:25.700Z,11.56
2023-03-18T08:45:54.863Z,11.62
2023-03-18T08:48:24.214Z,11.83
2023-03-18T08:50:58.412Z,12.01
2023-03-18T08:53:28.317Z,11.90
2023-03-18T08:55:56.463Z,11.96
2023-03-18T08:58:24.625Z,11.89
2023-03-18T09:00:55.519Z,11.89
2023-03-18T09:03:24.365Z,12.11
2023-03-18T09:05:57.604Z,12.32
2023-03-18T09:08:28.238Z,12.63
2023-03-18T09:10:56.551Z,12.48
2023-03-18T09:13:24.707Z,12.89
2023-03-18T09:15:52.984Z,13.15
2023-03-18T09:18:22.879Z,13.37
2023-03-18T09:20:51.183Z,13.75
2023-03-18T09:23:23.861Z,13.81
2023-03-18T09:25:51.793Z,14.28
2023-03-18T09:28:21.736Z,15.43
2023-03-18T09:30:50.866Z,15.24
2023-03-18T09:33:20.788Z,14.37
2023-03-18T09:35:49.500Z,14.59
2023-03-18T09:38:23.218Z,15.69
2023-03-18T09:41:04.198Z,16.87
2023-03-18T09:43:54.235Z,17.98
2023-03-18T09:46:33.539Z,17.37
2023-03-18T09:49:15.052Z,16.43
2023-03-18T09:51:54.963Z,17.57
2023-03-18T09:54:33.211Z,17.45
2023-03-18T09:57:04.395Z,17.17
2023-03-18T09:59:40.176Z,16.42
2023-03-18T10:02:20.674Z,15.83
2023-03-18T10:04:56.183Z,15.55
2023-03-18T10:07:29.753Z,15.16
2023-03-18T10:10:04.026Z,14.87
2023-03-18T10:12:38.817Z,14.74
2023-03-18T10:15:17.748Z,14.83
2023-03-18T10:17:54.936Z,15.80
2023-03-18T10:20:36.899Z,15.59
2023-03-18T10:23:18.249Z,15.68
2023-03-18T10:25:53.596Z,15.86
2023-03-18T10:28:42.545Z,15.68
2023-03-18T10:31:25.534Z,16.06
2023-03-18T10:33:59.671Z,15.92
2023-03-18T10:36:35.649Z,15.69
2023-03-18T10:39:04.032Z,15.89
2023-03-18T10:41:37.713Z,16.31
2023-03-18T10:44:19.161Z,16.70
2023-03-18T10:46:48.732Z,16.74
2023-03-18T10:49:24.914Z,16.24
2023-03-18T10:51:56.568Z,16.13
2023-03-18T10:54:28.370Z,16.31
2023-03-18T10:56:56.633Z,16.03
2023-03-18T10:59:31.854Z,15.27
2023-03-18T11:02:06.529Z,15.21
2023-03-18T11:04:46.988Z,15.75
2023-03-18T11:07:20.853Z,15.86
2023-03-18T11:09:48.798Z,16.14
2023-03-18T11:12:21.932Z,15.60
2023-03-18T11:14:53.591Z,15.68
2023-03-18T11:17:23.302Z,16.36
2023-03-18T11:20:04.724Z,16.36
2023-03-18T11:22:33.226Z,16.97
2023-03-18T11:25:13.479Z,17.43
2023-03-18T11:27:44.235Z,17.65
2023-03-18T11:30:33.244Z,17.71
2023-03-18T11:33:08.163Z,17.04
2023-03-18T11:35:47.337Z,16.43
2023-03-18T11:38:22.163Z,16.23
2023-03-18T11:40:50.155Z,17.75
2023-03-18T11:43:21.686Z,18.48
2023-03-18T11:45:55.650Z,19.33
2023-03-18T11:48:31.402Z,19.45
2023-03-18T11:51:27.200Z,19.12
2023-03-18T11:54:23.285Z,17.67
2023-03-18T11:56:57.321Z,17.28
2023-03-18T11:59:54.637Z,18.14
2023-03-18T12:02:43.620Z,16.92
2023-03-18T12:05:37.952Z,17.15
2023-03-18T12:08:20.660Z,17.19
2023-03-18T12:11:23.460Z,18.56
2023-03-18T12:14:07.396Z,18.37
2023-03-18T12:16:59.131Z,18.05
2023-03-18T12:19:54.146Z,17.67
2023-03-18T12:22:55.369Z,18.10
2023-03-18T12:25:54.676Z,17.79
2023-03-18T12:28:50.688Z,17.30
2023-03-18T12:31:40.735Z,18.95
2023-03-18T12:34:21.190Z,19.73
2023-03-18T12:37:08.890Z,18.89
2023-03-18T12:40:06.640Z,19.20
2023-03-18T12:42:51.677Z,19.77
2023-03-18T12:45:22.987Z,18.80
2023-03-18T12:48:00.909Z,18.13
2023-03-18T12:50:36.336Z,17.47
2023-03-18T12:53:14.783Z,17.57
2023-03-18T12:55:47.025Z,18.94
2023-03-18T12:58:20.434Z,19.91
2023-03-18T13:00:54.614Z,20.48
2023-03-18T13:03:33.146Z,18.83
2023-03-18T13:06:06.359Z,17.69
2023-03-18T13:09:03.302Z,17.84
2023-03-18T13:12:05.432Z,18.22
2023-03-18T13:14:48.738Z,17.47
2023-03-18T13:17:23.693Z,17.19
2023-03-18T13:19:52.924Z,17.29
2023-03-18T13:22:44.069Z,16.96
2023-03-18T13:25:23.854Z,17.00
2023-03-18T13:28:18.951Z,17.50
2023-03-18T13:30:59.484Z,17.59
2023-03-18T13:33:54.803Z,17.10
2023-03-18T13:36:48.903Z,16.99
2023-03-18T13:39:24.300Z,17.42
2023-03-18T13:42:19.813Z,17.66
2023-03-18T13:44:55.280Z,17.93
2023-03-18T13:47:25.875Z,17.95
2023-03-18T13:50:01.298Z,18.13
2023-03-18T13:52:36.440Z,17.99
2023-03-18T13:55:08.159Z,17.67
2023-03-18T13:57:48.941Z,17.50
2023-03-18T14:00:36.273Z,17.68
2023-03-18T14:03:17.279Z,17.66
2023-03-18T14:05:47.009Z,18.44
2023-03-18T14:08:47.846Z,18.47
2023-03-18T14:11:50.386Z,18.37
2023-03-18T14:14:45.115Z,18.64
2023-03-18T14:17:25.593Z,18.30
2023-03-18T14:19:57.918Z,17.94
2023-03-18T14:22:35.734Z,17.54
2023-03-18T14:25:37.782Z,17.19
2023-03-18T14:28:30.286Z,16.97
2023-03-18T14:31:36.043Z,17.01
2023-03-18T14:34:33.187Z,17.22
2023-03-18T14:37:22.167Z,17.14
2023-03-18T14:39:53.828Z,17.17
2023-03-18T14:42:31.580Z,17.05
2023-03-18T14:45:06.718Z,17.07
2023-03-18T14:47:50.766Z,17.03
2023-03-18T14:50:35.033Z,16.77
2023-03-18T14:53:13.777Z,16.83
2023-03-18T14:55:42.423Z,16.65
2023-03-18T14:58:17.950Z,16.37
2023-03-18T15:01:08.787Z,16.16
2023-03-18T15:03:40.130Z,16.23
2023-03-18T15:06:11.426Z,16.10
2023-03-18T15:08:48.088Z,16.06
2023-03-18T15:11:20.547Z,16.02
2023-03-18T15:13:48.787Z,15.65
2023-03-18T15:16:21.597Z,15.60
2023-03-18T15:18:58.781Z,15.19
2023-03-18T15:21:34.725Z,14.85
2023-03-18T15:24:07.645Z,14.49
2023-03-18T15:26:38.647Z,14.12
2023-03-18T15:29:25.177Z,13.84
2023-03-18T15:31:54.445Z,13.52
2023-03-18T15:34:30.906Z,13.41
2023-03-18T15:37:04.668Z,13.19
2023-03-18T15:39:36.697Z,13.01
2023-03-18T15:42:13.970Z,12.86
2023-03-18T15:44:46.214Z,12.82
2023-03-18T15:47:23.298Z,12.74
2023-03-18T15:50:01.987Z,12.63
2023-03-18T15:52:36.965Z,12.71
2023-03-18T15:55:20.253Z,12.65
2023-03-18T15:57:48.745Z,12.55
2023-03-18T16:00:20.760Z,12.53
2023-03-18T16:02:50.385Z,12.33
2023-03-18T16:05:24.776Z,12.34
2023-03-18T16:07:53.964Z,12.22
2023-03-18T16:10:26.475Z,12.13
2023-03-18T16:12:57.986Z,12.02
2023-03-18T16:15:28.197Z,12.05
2023-03-18T16:17:57.940Z,11.96
2023-03-18T16:20:29.120Z,11.89
2023-03-18T16:22:59.759Z,11.89
2023-03-18T16:25:29.478Z,11.92
2023-03-18T16:28:57.550Z,11.89
2023-03-18T16:32:20.371Z,11.96
2023-03-18T16:35:43.702Z,12.27
2023-03-18T16:38:41.112Z,12.23
2023-03-18T16:41:09.453Z,12.45
2023-03-18T16:43:37.417Z,12.64
2023-03-18T16:46:05.708Z,12.70
2023-03-18T16:48:35.037Z,12.82
2023-03-18T16:51:04.545Z,12.88
2023-03-18T16:53:33.265Z,12.95
2023-03-18T16:56:05.880Z,12.74
2023-03-18T16:58:35.582Z,12.72
2023-03-18T17:01:06.268Z,12.40
2023-03-18T17:03:34.782Z,12.27
2023-03-18T17:06:02.883Z,12.21
2023-03-18T17:08:35.261Z,12.00
2023-03-18T17:11:18.492Z,11.78
2023-03-18T17:13:50.283Z,11.80
2023-03-18T17:16:25.233Z,11.71
2023-03-18T17:18:53.420Z,11.58
2023-03-18T17:21:28.258Z,11.57
2023-03-18T17:23:56.867Z,11.47
2023-03-18T17:26:28.657Z,11.40
2023-03-18T17:28:58.623Z,11.46
2023-03-18T17:31:26.768Z,11.30
2023-03-18T17:33:59.687Z,11.21
2023-03-18T17:36:27.973Z,11.22
2023-03-18T17:38:58.771Z,11.19
2023-03-18T17:41:28.511Z,11.11
2023-03-18T17:43:56.520Z,11.11
2023-03-18T17:46:24.858Z,10.99
2023-03-18T17:48:52.833Z,11.03
2023-03-18T17:51:23.742Z,10.98
2023-03-18T17:53:56.655Z,10.92
2023-03-18T17:56:27.418Z,10.89
2023-03-18T17:58:56.863Z,10.85
2023-03-18T18:01:27.560Z,10.87
2023-03-18T18:03:57.100Z,10.88
2023-03-18T18:06:28.991Z,10.88
2023-03-18T18:08:59.007Z,10.82
2023-03-18T18:11:29.085Z,10.68
2023-03-18T18:14:16.520Z,10.61
2023-03-18T18:16:45.830Z,10.62
2023-03-18T18:19:15.930Z,10.58
2023-03-18T18:21:46.171Z,10.62
2023-03-18T18:24:25.266Z,10.61
2023-03-18T18:26:53.593Z,10.55
2023-03-18T18:29:26.494Z,10.64
2023-03-18T18:31:55.164Z,10.63
2023-03-18T18:34:23.186Z,10.49
2023-03-18T18:36:51.707Z,10.55
2023-03-18T18:39:21.021Z,10.64
2023-03-18T18:41:51.373Z,10.54
2023-03-18T18:44:20.157Z,10.27
2023-03-18T18:46:50.038Z,10.41
2023-03-18T18:49:22.559Z,10.46
2023-03-18T18:51:53.479Z,10.05
2023-03-18T18:54:22.790Z,9.74
2023-03-18T18:56:51.586Z,9.86
2023-03-18T18:59:26.941Z,9.86
2023-03-18T19:01:56.877Z,9.78
2023-03-18T19:04:25.352Z,9.68
2023-03-18T19:06:53.850Z,9.41
2023-03-18T19:09:24.465Z,9.35
2023-03-18T19:11:53.384Z,9.36
2023-03-18T19:14:24.583Z,9.02
2023-03-18T19:16:53.716Z,9.03
2023-03-18T19:19:27.209Z,8.95
2023-03-18T19:21:55.089Z,8.96
2023-03-18T19:24:28.759Z,9.32
2023-03-18T19:26:58.453Z,9.17
2023-03-18T19:29:29.734Z,9.09
2023-03-18T19:31:57.997Z,9.09
2023-03-18T19:34:27.819Z,9.18
2023-03-18T19:36:57.337Z,8.98
2023-03-18T19:39:27.747Z,9.07
2023-03-18T19:41:55.775Z,9.08
2023-03-18T19:44:26.108Z,8.97
2023-03-18T19:46:56.157Z,8.85
2023-03-18T19:49:28.578Z,8.84
2023-03-18T19:51:57.227Z,8.80
2023-03-18T19:54:29.054Z,8.50
2023-03-18T19:57:00.348Z,8.55
2023-03-18T19:59:37.440Z,8.44
2023-03-18T20:02:18.959Z,8.26
2023-03-18T20:04:49.498Z,8.40
2023-03-18T20:07:18.998Z,8.50
2023-03-18T20:09:47.372Z,8.50
2023-03-18T20:12:35.199Z,8.57
2023-03-18T20:15:04.542Z,8.50
2023-03-18T20:17:37.343Z,8.29
2023-03-18T20:20:13.834Z,8.59
2023-03-18T20:22:46.279Z,8.48
2023-03-18T20:25:22.555Z,8.52
2023-03-18T20:27:53.622Z,8.52
2023-03-18T20:30:27.766Z,8.36
2023-03-18T20:32:56.322Z,8.45
2023-03-18T20:35:28.764Z,8.36
2023-03-18T20:37:59.226Z,8.22
2023-03-18T20:40:29.222Z,8.32
2023-03-18T20:43:03.507Z,8.40
2023-03-18T20:45:32.791Z,8.24
2023-03-18T20:48:01.807Z,8.30
2023-03-18T20:50:32.046Z,8.54
2023-03-18T20:53:08.720Z,8.50
2023-03-18T20:55:46.782Z,8.59
2023-03-18T20:59:11.322Z,8.38
2023-03-18T21:01:46.485Z,8.32
2023-03-18T21:04:14.995Z,8.17
2023-03-18T21:06:46.251Z,8.27
2023-03-18T21:09:16.456Z,8.29
2023-03-18T21:11:48.404Z,8.33
2023-03-18T21:14:16.783Z,8.52
2023-03-18T21:16:44.749Z,8.47
2023-03-18T21:19:13.023Z,8.69
2023-03-18T21:21:42.762Z,8.64
2023-03-18T21:24:24.600Z,8.75
2023-03-18T21:27:05.448Z,8.62
2023-03-18T21:29:34.101Z,8.44
2023-03-18T21:32:02.683Z,8.34
2023-03-18T21:34:30.769Z,8.61
2023-03-18T21:36:58.614Z,8.58
2023-03-18T21:39:27.923Z,8.56
2023-03-18T21:41:57.202Z,8.56
2023-03-18T21:44:25.093Z,8.65
2023-03-18T21:46:53.001Z,8.95
2023-03-18T21:49:21.001Z,8.79
2023-03-18T21:51:48.873Z,8.98
2023-03-18T21:54:19.059Z,8.94
2023-03-18T21:56:51.179Z,9.07
2023-03-18T21:59:19.132Z,9.12
2023-03-18T22:01:47.303Z,9.16
2023-03-18T22:04:15.637Z,9.22
2023-03-18T22:06:43.605Z,9.31
2023-03-18T22:09:11.550Z,9.33
2023-03-18T22:11:39.615Z,9.32
2023-03-18T22:14:14.532Z,9.32
2023-03-18T22:16:42.559Z,9.35
2023-03-18T22:19:10.490Z,9.35
2023-03-18T22:21:38.439Z,9.34
2023-03-18T22:24:07.142Z,9.38
2023-03-18T22:26:34.945Z,9.38
2023-03-18T22:29:02.984Z,9.38
2023-03-18T22:31:32.622Z,9.40
2023-03-18T22:34:00.646Z,9.42
2023-03-18T22:36:29.710Z,9.48
2023-03-18T22:38:57.721Z,9.53
2023-03-18T22:41:29.328Z,9.57
2023-03-18T22:44:00.053Z,9.57
2023-03-18T22:46:29.947Z,9.49
2023-03-18T22:49:05.555Z,9.56
2023-03-18T22:51:40.603Z,9.48
2023-03-18T22:54:18.905Z,9.50
2023-03-18T22:56:46.876Z,9.48
2023-03-18T22:59:15.414Z,9.48
2023-03-18T23:01:43.515Z,9.61
2023-03-18T23:04:14.186Z,9.58
2023-03-18T23:06:43.041Z,9.58
2023-03-18T23:09:11.115Z,9.41
2023-03-18T23:11:39.053Z,9.51
2023-03-18T23:14:11.952Z,9.52
2023-03-18T23:16:41.691Z,9.56
2023-03-18T23:19:09.744Z,9.48
2023-03-18T23:21:46.336Z,9.55
2023-03-18T23:24:15.585Z,9.51
2023-03-18T23:26:43.480Z,9.53
2023-03-18T23:29:13.774Z,9.57
2023-03-18T23:31:41.764Z,9.61
2023-03-18T23:34:09.856Z,9.66
2023-03-18T23:36:37.867Z,9.57
2023-03-18T23:39:07.159Z,9.59
2023-03-18T23:41:36.555Z,9.57
2023-03-18T23:44:07.401Z,9.61
2023-03-18T23:46:35.784Z,9.60
2023-03-18T23:49:04.091Z,9.55
2023-03-18T23:51:34.371Z,9.50
2023-03-18T23:54:02.470Z,9.48
2023-03-18T23:56:32.303Z,9.55
2023-03-18T23:59:03.473Z,9.47
